Holly Hill, Florida
Current Conditions -  °F | °C
As of 1:53 AM on Friday 31 Oct 2014 (Local Time) from KDAB Reporting Station
Scattered Clouds Scattered Clouds  
Wind Chill: 65°   Ceiling: Unl
Heat Index: 65°   Visibility: 10mi
Dew Point: 63°   Wind: 3mph
Humidity: 93%   Direction: 240°WSW
Pressure: 29.87"   Gusts: NA
Location:  29.25°N, 81.04°W
Report Text: KDAB 310553Z 24003KT 10SM SCT100 18/17 A2987 RMK AO2 SLP114 CONS LTGIC DSNT S CB DSNT S 60001 T01830172 10233 20178 56015
Loading
Personal Weather Stations






























Interactive Weather Map New forecast layout! Learn more

10-Day Weather Forecast

Advertisements
Track Severe Weather on mobile